KAUS - Austin/Bergstrom Int, TX, US

Issued at 1121 UTC 16 Jul 2019
Updated at 1209 UTC 16 Jul 2019
Potential Impact None Slight Moderate High
Time1153Z 16/13Z 16/14Z 16/15Z 16/16Z 16/17Z 16/18Z 16/19Z 16/20Z 16/21Z 16/22Z 16/23Z 17/00Z 17/01Z>>
Type OBS PRVL
  [TEMP]  
PRVL PRVL PRVL PRVL PRVL PRVL PRVL PRVL PRVL PRVL PRVL PRVL
VIS 8 >6 >6 >6 >6 >6 >6 >6 >6 >6 >6 >6 >6 >6
CIG -- --
  [15]  
-- -- -- -- -- -- -- -- -- -- -- --
Cover SCT SCT
  [BKN]  
SCT SCT SCT SCT SCT SCT SCT SCT SCT SCT SCT SCT
FltCat VFR VFR
  [MVFR]  
VFR VFR VFR VFR VFR VFR VFR VFR VFR VFR VFR VFR
WX -- --
  [--]  
-- -- -- -- -- -- -- -- -- -- -- --
WDir 190 180
[180]
180 180 190 190 190 190 190 190 190 190 190 190
WSpd 5 5
  [5]  
5 5 12 12 12 12 12 12 12 12 12 12
WGst -- --
  [--]  
-- -- -- -- -- -- -- -- -- -- -- --
Raw TAF
KAUS 161121Z 1612/1718 18005KT P6SM SCT015
  TEMPO 1612/1614 BKN015
  FM161600 19012KT P6SM SCT250
  FM170900 18005KT P6SM BKN015
  FM171500 18012KT P6SM SCT040


Raw METAR
KAUS 161153Z 19005KT 8SM SCT022 25/24 A2999 RMK AO2 SLP142 T02500244 10272 20250 53009
KAUS 161053Z 20006KT 10SM FEW016 26/24 A2998 RMK AO2 SLP140 T02560244 $
KAUS 160953Z 18006KT 10SM FEW013 26/24 A2996 RMK AO2 SLP133 T02560244 $

METAR Board
Radar Display
Forecast Discussion
For situational awareness. Not to be used for flight planning purposes.